sensor_id;sensor_type;location;lat;lon;timestamp;pressure;altitude;pressure_sealevel;temperature
11849;BMP180;5983;49.966;8.052;2022-10-17T00:00:14;100911.00;;;12.80
11849;BMP180;5983;49.966;8.052;2022-10-17T00:02:41;100912.00;;;12.80
11849;BMP180;5983;49.966;8.052;2022-10-17T00:05:09;100907.00;;;12.80
11849;BMP180;5983;49.966;8.052;2022-10-17T00:07:37;100913.00;;;12.70
11849;BMP180;5983;49.966;8.052;2022-10-17T00:10:05;100920.00;;;12.70
11849;BMP180;5983;49.966;8.052;2022-10-17T00:12:32;100926.00;;;12.60
11849;BMP180;5983;49.966;8.052;2022-10-17T00:15:01;100919.00;;;12.60
11849;BMP180;5983;49.966;8.052;2022-10-17T00:17:28;100927.00;;;12.60
11849;BMP180;5983;49.966;8.052;2022-10-17T00:19:57;100931.00;;;12.60
11849;BMP180;5983;49.966;8.052;2022-10-17T00:22:26;100926.00;;;12.60
11849;BMP180;5983;49.966;8.052;2022-10-17T00:24:53;100932.00;;;12.60
11849;BMP180;5983;49.966;8.052;2022-10-17T00:27:20;100939.00;;;12.60
11849;BMP180;5983;49.966;8.052;2022-10-17T00:29:48;100936.00;;;12.60
11849;BMP180;5983;49.966;8.052;2022-10-17T00:32:15;100942.00;;;12.70
11849;BMP180;5983;49.966;8.052;2022-10-17T00:34:42;100941.00;;;12.60
11849;BMP180;5983;49.966;8.052;2022-10-17T00:37:09;100946.00;;;12.60
11849;BMP180;5983;49.966;8.052;2022-10-17T00:39:38;100949.00;;;12.60
11849;BMP180;5983;49.966;8.052;2022-10-17T00:42:05;100945.00;;;12.60
11849;BMP180;5983;49.966;8.052;2022-10-17T00:45:16;100951.00;;;12.60
11849;BMP180;5983;49.966;8.052;2022-10-17T00:47:47;100954.00;;;12.50
11849;BMP180;5983;49.966;8.052;2022-10-17T00:50:16;100951.00;;;12.50
11849;BMP180;5983;49.966;8.052;2022-10-17T00:52:45;100949.00;;;12.50
11849;BMP180;5983;49.966;8.052;2022-10-17T00:55:19;100943.00;;;12.40
11849;BMP180;5983;49.966;8.052;2022-10-17T00:57:47;100949.00;;;12.40
11849;BMP180;5983;49.966;8.052;2022-10-17T01:00:16;100943.00;;;12.40
11849;BMP180;5983;49.966;8.052;2022-10-17T01:02:43;100944.00;;;12.30
11849;BMP180;5983;49.966;8.052;2022-10-17T01:05:11;100946.00;;;12.30
11849;BMP180;5983;49.966;8.052;2022-10-17T01:07:40;100941.00;;;12.20
11849;BMP180;5983;49.966;8.052;2022-10-17T01:10:09;100938.00;;;12.20
11849;BMP180;5983;49.966;8.052;2022-10-17T01:12:54;100948.00;;;12.20
11849;BMP180;5983;49.966;8.052;2022-10-17T01:15:38;100949.00;;;12.20
11849;BMP180;5983;49.966;8.052;2022-10-17T01:18:20;100950.00;;;12.20
11849;BMP180;5983;49.966;8.052;2022-10-17T01:21:23;100952.00;;;12.20
11849;BMP180;5983;49.966;8.052;2022-10-17T01:24:51;100951.00;;;12.10
11849;BMP180;5983;49.966;8.052;2022-10-17T01:27:58;100948.00;;;12.10
11849;BMP180;5983;49.966;8.052;2022-10-17T01:30:56;100947.00;;;12.10
11849;BMP180;5983;49.966;8.052;2022-10-17T01:33:41;100951.00;;;12.10
11849;BMP180;5983;49.966;8.052;2022-10-17T01:36:18;100952.00;;;12.10
11849;BMP180;5983;49.966;8.052;2022-10-17T01:38:56;100960.00;;;12.10
11849;BMP180;5983;49.966;8.052;2022-10-17T01:41:36;100956.00;;;12.10
11849;BMP180;5983;49.966;8.052;2022-10-17T01:44:11;100952.00;;;12.00
11849;BMP180;5983;49.966;8.052;2022-10-17T01:46:45;100952.00;;;12.00
11849;BMP180;5983;49.966;8.052;2022-10-17T01:49:17;100949.00;;;12.00
11849;BMP180;5983;49.966;8.052;2022-10-17T01:51:50;100947.00;;;12.00
11849;BMP180;5983;49.966;8.052;2022-10-17T01:54:22;100955.00;;;12.00
11849;BMP180;5983;49.966;8.052;2022-10-17T01:56:57;100942.00;;;11.90
11849;BMP180;5983;49.966;8.052;2022-10-17T01:59:30;100945.00;;;12.00
11849;BMP180;5983;49.966;8.052;2022-10-17T02:02:02;100946.00;;;12.00
11849;BMP180;5983;49.966;8.052;2022-10-17T02:04:29;100950.00;;;12.00
11849;BMP180;5983;49.966;8.052;2022-10-17T02:06:56;100938.00;;;11.90
11849;BMP180;5983;49.966;8.052;2022-10-17T02:09:31;100937.00;;;11.90
11849;BMP180;5983;49.966;8.052;2022-10-17T02:12:24;100936.00;;;11.90
11849;BMP180;5983;49.966;8.052;2022-10-17T02:15:09;100937.00;;;11.80
11849;BMP180;5983;49.966;8.052;2022-10-17T02:17:50;100940.00;;;11.80
11849;BMP180;5983;49.966;8.052;2022-10-17T02:20:25;100939.00;;;11.90
11849;BMP180;5983;49.966;8.052;2022-10-17T02:23:00;100939.00;;;11.80
11849;BMP180;5983;49.966;8.052;2022-10-17T02:25:37;100947.00;;;11.80
11849;BMP180;5983;49.966;8.052;2022-10-17T02:28:18;100941.00;;;11.80
11849;BMP180;5983;49.966;8.052;2022-10-17T02:30:53;100945.00;;;11.80
11849;BMP180;5983;49.966;8.052;2022-10-17T02:33:26;100935.00;;;11.70
11849;BMP180;5983;49.966;8.052;2022-10-17T02:36:00;100932.00;;;11.70
11849;BMP180;5983;49.966;8.052;2022-10-17T02:38:31;100937.00;;;11.70
11849;BMP180;5983;49.966;8.052;2022-10-17T02:40:59;100940.00;;;11.70
11849;BMP180;5983;49.966;8.052;2022-10-17T02:43:27;100938.00;;;11.70
11849;BMP180;5983;49.966;8.052;2022-10-17T02:45:55;100945.00;;;11.70
11849;BMP180;5983;49.966;8.052;2022-10-17T02:48:33;100933.00;;;11.70
11849;BMP180;5983;49.966;8.052;2022-10-17T02:51:06;100935.00;;;11.60
11849;BMP180;5983;49.966;8.052;2022-10-17T02:53:44;100945.00;;;11.60
11849;BMP180;5983;49.966;8.052;2022-10-17T02:56:20;100943.00;;;11.70
11849;BMP180;5983;49.966;8.052;2022-10-17T02:58:53;100953.00;;;11.70
11849;BMP180;5983;49.966;8.052;2022-10-17T03:01:23;100949.00;;;11.70
11849;BMP180;5983;49.966;8.052;2022-10-17T03:04:05;100959.00;;;11.70
11849;BMP180;5983;49.966;8.052;2022-10-17T03:06:32;100968.00;;;11.70
11849;BMP180;5983;49.966;8.052;2022-10-17T03:08:59;100965.00;;;11.70
11849;BMP180;5983;49.966;8.052;2022-10-17T03:11:26;100962.00;;;11.70
11849;BMP180;5983;49.966;8.052;2022-10-17T03:13:53;100959.00;;;11.60
11849;BMP180;5983;49.966;8.052;2022-10-17T03:16:20;100956.00;;;11.70
11849;BMP180;5983;49.966;8.052;2022-10-17T03:18:47;100968.00;;;11.70
11849;BMP180;5983;49.966;8.052;2022-10-17T03:21:15;100964.00;;;11.70
11849;BMP180;5983;49.966;8.052;2022-10-17T03:23:42;100971.00;;;11.70
11849;BMP180;5983;49.966;8.052;2022-10-17T03:26:09;100968.00;;;11.70
11849;BMP180;5983;49.966;8.052;2022-10-17T03:28:37;100972.00;;;11.70
11849;BMP180;5983;49.966;8.052;2022-10-17T03:31:08;100974.00;;;11.70
11849;BMP180;5983;49.966;8.052;2022-10-17T03:33:36;100981.00;;;11.70
11849;BMP180;5983;49.966;8.052;2022-10-17T03:36:06;100985.00;;;11.70
11849;BMP180;5983;49.966;8.052;2022-10-17T03:38:35;100981.00;;;11.70
11849;BMP180;5983;49.966;8.052;2022-10-17T03:41:02;100987.00;;;11.70
11849;BMP180;5983;49.966;8.052;2022-10-17T03:43:29;100996.00;;;11.70
11849;BMP180;5983;49.966;8.052;2022-10-17T03:45:57;100993.00;;;11.70
11849;BMP180;5983;49.966;8.052;2022-10-17T03:48:27;100986.00;;;11.70
11849;BMP180;5983;49.966;8.052;2022-10-17T03:50:58;100990.00;;;11.70
11849;BMP180;5983;49.966;8.052;2022-10-17T03:53:27;100978.00;;;11.70
11849;BMP180;5983;49.966;8.052;2022-10-17T03:55:55;100977.00;;;11.70
11849;BMP180;5983;49.966;8.052;2022-10-17T03:58:22;100985.00;;;11.60
11849;BMP180;5983;49.966;8.052;2022-10-17T04:00:49;100985.00;;;11.60
11849;BMP180;5983;49.966;8.052;2022-10-17T04:03:17;100982.00;;;11.60
11849;BMP180;5983;49.966;8.052;2022-10-17T04:05:43;100984.00;;;11.60
11849;BMP180;5983;49.966;8.052;2022-10-17T04:08:10;100986.00;;;11.60
11849;BMP180;5983;49.966;8.052;2022-10-17T04:10:37;100988.00;;;11.60
11849;BMP180;5983;49.966;8.052;2022-10-17T04:13:05;100990.00;;;11.60
11849;BMP180;5983;49.966;8.052;2022-10-17T04:15:32;100990.00;;;11.60
11849;BMP180;5983;49.966;8.052;2022-10-17T04:17:59;100998.00;;;11.60
11849;BMP180;5983;49.966;8.052;2022-10-17T04:20:26;100998.00;;;11.60
11849;BMP180;5983;49.966;8.052;2022-10-17T04:22:53;101002.00;;;11.70
11849;BMP180;5983;49.966;8.052;2022-10-17T04:25:20;101003.00;;;11.70
11849;BMP180;5983;49.966;8.052;2022-10-17T04:27:46;101007.00;;;11.70
11849;BMP180;5983;49.966;8.052;2022-10-17T04:30:16;101013.00;;;11.70
11849;BMP180;5983;49.966;8.052;2022-10-17T04:32:43;101012.00;;;11.70
11849;BMP180;5983;49.966;8.052;2022-10-17T04:35:10;101026.00;;;11.70
11849;BMP180;5983;49.966;8.052;2022-10-17T04:37:36;101005.00;;;11.60
11849;BMP180;5983;49.966;8.052;2022-10-17T04:40:05;101014.00;;;11.70
11849;BMP180;5983;49.966;8.052;2022-10-17T04:42:32;101013.00;;;11.60
11849;BMP180;5983;49.966;8.052;2022-10-17T04:44:58;101012.00;;;11.60
11849;BMP180;5983;49.966;8.052;2022-10-17T04:47:27;101011.00;;;11.60
11849;BMP180;5983;49.966;8.052;2022-10-17T04:49:53;101016.00;;;11.50
11849;BMP180;5983;49.966;8.052;2022-10-17T04:52:20;101007.00;;;11.50
11849;BMP180;5983;49.966;8.052;2022-10-17T04:54:47;101007.00;;;11.50
11849;BMP180;5983;49.966;8.052;2022-10-17T04:57:14;101006.00;;;11.50
11849;BMP180;5983;49.966;8.052;2022-10-17T04:59:41;101003.00;;;11.40
11849;BMP180;5983;49.966;8.052;2022-10-17T05:02:08;101010.00;;;11.40
11849;BMP180;5983;49.966;8.052;2022-10-17T05:04:36;101007.00;;;11.40
11849;BMP180;5983;49.966;8.052;2022-10-17T05:07:03;100996.00;;;11.40
11849;BMP180;5983;49.966;8.052;2022-10-17T05:09:30;100999.00;;;11.40
11849;BMP180;5983;49.966;8.052;2022-10-17T05:11:57;101000.00;;;11.30
11849;BMP180;5983;49.966;8.052;2022-10-17T05:14:24;101012.00;;;11.30
11849;BMP180;5983;49.966;8.052;2022-10-17T05:16:52;101013.00;;;11.30
11849;BMP180;5983;49.966;8.052;2022-10-17T05:19:18;101020.00;;;11.30
11849;BMP180;5983;49.966;8.052;2022-10-17T05:21:47;101018.00;;;11.30
11849;BMP180;5983;49.966;8.052;2022-10-17T05:24:14;101015.00;;;11.30
11849;BMP180;5983;49.966;8.052;2022-10-17T05:26:41;101006.00;;;11.20
11849;BMP180;5983;49.966;8.052;2022-10-17T05:29:08;101010.00;;;11.30
11849;BMP180;5983;49.966;8.052;2022-10-17T05:31:36;101016.00;;;11.20
11849;BMP180;5983;49.966;8.052;2022-10-17T05:34:03;101015.00;;;11.20
11849;BMP180;5983;49.966;8.052;2022-10-17T05:36:30;101004.00;;;11.20
11849;BMP180;5983;49.966;8.052;2022-10-17T05:38:58;101015.00;;;11.20
11849;BMP180;5983;49.966;8.052;2022-10-17T05:41:25;101021.00;;;11.20
11849;BMP180;5983;49.966;8.052;2022-10-17T05:43:52;101009.00;;;11.20
11849;BMP180;5983;49.966;8.052;2022-10-17T05:46:19;101024.00;;;11.20
11849;BMP180;5983;49.966;8.052;2022-10-17T05:48:46;101019.00;;;11.20
11849;BMP180;5983;49.966;8.052;2022-10-17T05:51:13;101028.00;;;11.20
11849;BMP180;5983;49.966;8.052;2022-10-17T05:53:41;101030.00;;;11.30
11849;BMP180;5983;49.966;8.052;2022-10-17T05:56:11;101024.00;;;11.30
11849;BMP180;5983;49.966;8.052;2022-10-17T05:58:40;101035.00;;;11.30
11849;BMP180;5983;49.966;8.052;2022-10-17T06:01:09;101029.00;;;11.30
11849;BMP180;5983;49.966;8.052;2022-10-17T06:03:38;101034.00;;;11.30
11849;BMP180;5983;49.966;8.052;2022-10-17T06:06:06;101046.00;;;11.40
11849;BMP180;5983;49.966;8.052;2022-10-17T06:08:34;101038.00;;;11.40
11849;BMP180;5983;49.966;8.052;2022-10-17T06:11:00;101044.00;;;11.40
11849;BMP180;5983;49.966;8.052;2022-10-17T06:13:29;101051.00;;;11.40
11849;BMP180;5983;49.966;8.052;2022-10-17T06:15:56;101060.00;;;11.50
11849;BMP180;5983;49.966;8.052;2022-10-17T06:18:23;101055.00;;;11.50
11849;BMP180;5983;49.966;8.052;2022-10-17T06:20:51;101055.00;;;11.50
11849;BMP180;5983;49.966;8.052;2022-10-17T06:23:18;101061.00;;;11.60
11849;BMP180;5983;49.966;8.052;2022-10-17T06:25:45;101058.00;;;11.60
11849;BMP180;5983;49.966;8.052;2022-10-17T06:28:12;101058.00;;;11.60
11849;BMP180;5983;49.966;8.052;2022-10-17T06:30:40;101055.00;;;11.60
11849;BMP180;5983;49.966;8.052;2022-10-17T06:33:07;101061.00;;;11.70
11849;BMP180;5983;49.966;8.052;2022-10-17T06:35:34;101063.00;;;11.70
11849;BMP180;5983;49.966;8.052;2022-10-17T06:38:02;101061.00;;;11.80
11849;BMP180;5983;49.966;8.052;2022-10-17T06:40:29;101065.00;;;12.00
11849;BMP180;5983;49.966;8.052;2022-10-17T06:42:56;101067.00;;;12.30
11849;BMP180;5983;49.966;8.052;2022-10-17T06:45:24;101071.00;;;12.60
11849;BMP180;5983;49.966;8.052;2022-10-17T06:47:52;101073.00;;;13.00
11849;BMP180;5983;49.966;8.052;2022-10-17T06:50:19;101078.00;;;13.70
11849;BMP180;5983;49.966;8.052;2022-10-17T06:52:50;101081.00;;;14.50
11849;BMP180;5983;49.966;8.052;2022-10-17T06:55:16;101079.00;;;15.20
11849;BMP180;5983;49.966;8.052;2022-10-17T06:57:44;101084.00;;;16.10
11849;BMP180;5983;49.966;8.052;2022-10-17T07:00:12;101087.00;;;16.90
11849;BMP180;5983;49.966;8.052;2022-10-17T07:02:41;101099.00;;;17.50
11849;BMP180;5983;49.966;8.052;2022-10-17T07:05:09;101103.00;;;18.10
11849;BMP180;5983;49.966;8.052;2022-10-17T07:07:36;101112.00;;;18.30
11849;BMP180;5983;49.966;8.052;2022-10-17T07:10:04;101114.00;;;18.10
11849;BMP180;5983;49.966;8.052;2022-10-17T07:12:33;101111.00;;;17.80
11849;BMP180;5983;49.966;8.052;2022-10-17T07:15:01;101114.00;;;17.50
11849;BMP180;5983;49.966;8.052;2022-10-17T07:17:29;101127.00;;;17.30
11849;BMP180;5983;49.966;8.052;2022-10-17T07:19:56;101131.00;;;16.90
11849;BMP180;5983;49.966;8.052;2022-10-17T07:22:24;101131.00;;;16.80
11849;BMP180;5983;49.966;8.052;2022-10-17T07:24:51;101137.00;;;16.60
11849;BMP180;5983;49.966;8.052;2022-10-17T07:27:17;101136.00;;;16.60
11849;BMP180;5983;49.966;8.052;2022-10-17T07:29:44;101142.00;;;16.70
11849;BMP180;5983;49.966;8.052;2022-10-17T07:32:11;101144.00;;;17.10
11849;BMP180;5983;49.966;8.052;2022-10-17T07:34:38;101136.00;;;17.70
11849;BMP180;5983;49.966;8.052;2022-10-17T07:37:05;101137.00;;;18.40
11849;BMP180;5983;49.966;8.052;2022-10-17T07:39:35;101133.00;;;18.90
11849;BMP180;5983;49.966;8.052;2022-10-17T07:42:04;101153.00;;;19.20
11849;BMP180;5983;49.966;8.052;2022-10-17T07:44:33;101158.00;;;19.30
11849;BMP180;5983;49.966;8.052;2022-10-17T07:47:01;101153.00;;;19.50
11849;BMP180;5983;49.966;8.052;2022-10-17T07:49:28;101150.00;;;19.80
11849;BMP180;5983;49.966;8.052;2022-10-17T07:51:55;101157.00;;;20.20
11849;BMP180;5983;49.966;8.052;2022-10-17T07:54:22;101159.00;;;20.00
11849;BMP180;5983;49.966;8.052;2022-10-17T07:56:50;101159.00;;;19.80
11849;BMP180;5983;49.966;8.052;2022-10-17T07:59:18;101159.00;;;19.60
11849;BMP180;5983;49.966;8.052;2022-10-17T08:01:45;101161.00;;;19.80
11849;BMP180;5983;49.966;8.052;2022-10-17T08:04:12;101160.00;;;20.30
11849;BMP180;5983;49.966;8.052;2022-10-17T08:06:39;101167.00;;;21.00
11849;BMP180;5983;49.966;8.052;2022-10-17T08:09:05;101166.00;;;21.40
11849;BMP180;5983;49.966;8.052;2022-10-17T08:11:32;101165.00;;;21.60
11849;BMP180;5983;49.966;8.052;2022-10-17T08:14:02;101157.00;;;21.80
11849;BMP180;5983;49.966;8.052;2022-10-17T08:16:29;101170.00;;;21.80
11849;BMP180;5983;49.966;8.052;2022-10-17T08:18:56;101164.00;;;21.60
11849;BMP180;5983;49.966;8.052;2022-10-17T08:21:23;101170.00;;;21.60
11849;BMP180;5983;49.966;8.052;2022-10-17T08:23:49;101177.00;;;21.80
11849;BMP180;5983;49.966;8.052;2022-10-17T08:26:16;101178.00;;;22.10
11849;BMP180;5983;49.966;8.052;2022-10-17T08:28:45;101170.00;;;22.10
11849;BMP180;5983;49.966;8.052;2022-10-17T08:31:17;101169.00;;;22.20
11849;BMP180;5983;49.966;8.052;2022-10-17T08:33:45;101160.00;;;22.30
11849;BMP180;5983;49.966;8.052;2022-10-17T08:36:15;101156.00;;;22.70
11849;BMP180;5983;49.966;8.052;2022-10-17T08:38:43;101160.00;;;23.00
11849;BMP180;5983;49.966;8.052;2022-10-17T08:41:21;101159.00;;;23.60
11849;BMP180;5983;49.966;8.052;2022-10-17T08:44:04;101164.00;;;24.40
11849;BMP180;5983;49.966;8.052;2022-10-17T08:46:42;101165.00;;;25.00
11849;BMP180;5983;49.966;8.052;2022-10-17T08:49:15;101172.00;;;26.00
11849;BMP180;5983;49.966;8.052;2022-10-17T08:51:51;101180.00;;;26.90
11849;BMP180;5983;49.966;8.052;2022-10-17T08:54:24;101183.00;;;27.80
11849;BMP180;5983;49.966;8.052;2022-10-17T08:56:56;101187.00;;;28.50
11849;BMP180;5983;49.966;8.052;2022-10-17T08:59:29;101189.00;;;29.10
11849;BMP180;5983;49.966;8.052;2022-10-17T09:02:07;101186.00;;;29.70
11849;BMP180;5983;49.966;8.052;2022-10-17T09:04:56;101196.00;;;30.40
11849;BMP180;5983;49.966;8.052;2022-10-17T09:07:37;101197.00;;;30.70
11849;BMP180;5983;49.966;8.052;2022-10-17T09:10:14;101198.00;;;30.60
11849;BMP180;5983;49.966;8.052;2022-10-17T09:12:57;101198.00;;;30.80
11849;BMP180;5983;49.966;8.052;2022-10-17T09:15:58;101205.00;;;30.60
11849;BMP180;5983;49.966;8.052;2022-10-17T09:18:31;101198.00;;;31.10
11849;BMP180;5983;49.966;8.052;2022-10-17T09:21:18;101206.00;;;31.70
11849;BMP180;5983;49.966;8.052;2022-10-17T09:23:50;101197.00;;;31.80
11849;BMP180;5983;49.966;8.052;2022-10-17T09:26:17;101195.00;;;32.10
11849;BMP180;5983;49.966;8.052;2022-10-17T09:28:51;101210.00;;;32.30
11849;BMP180;5983;49.966;8.052;2022-10-17T09:31:22;101205.00;;;32.60
11849;BMP180;5983;49.966;8.052;2022-10-17T09:33:54;101210.00;;;33.00
11849;BMP180;5983;49.966;8.052;2022-10-17T09:36:26;101214.00;;;33.00
11849;BMP180;5983;49.966;8.052;2022-10-17T09:38:56;101209.00;;;32.90
11849;BMP180;5983;49.966;8.052;2022-10-17T09:41:32;101226.00;;;32.90
11849;BMP180;5983;49.966;8.052;2022-10-17T09:44:18;101222.00;;;33.10
11849;BMP180;5983;49.966;8.052;2022-10-17T09:47:10;101226.00;;;33.30
11849;BMP180;5983;49.966;8.052;2022-10-17T09:49:42;101229.00;;;33.30
11849;BMP180;5983;49.966;8.052;2022-10-17T09:52:13;101229.00;;;33.30
11849;BMP180;5983;49.966;8.052;2022-10-17T09:54:45;101249.00;;;33.10
11849;BMP180;5983;49.966;8.052;2022-10-17T09:57:14;101253.00;;;33.40
11849;BMP180;5983;49.966;8.052;2022-10-17T09:59:44;101257.00;;;33.70
11849;BMP180;5983;49.966;8.052;2022-10-17T10:02:19;101256.00;;;33.60
11849;BMP180;5983;49.966;8.052;2022-10-17T10:05:15;101250.00;;;33.70
11849;BMP180;5983;49.966;8.052;2022-10-17T10:08:00;101257.00;;;33.80
11849;BMP180;5983;49.966;8.052;2022-10-17T10:10:30;101256.00;;;33.80
11849;BMP180;5983;49.966;8.052;2022-10-17T10:13:04;101258.00;;;33.70
11849;BMP180;5983;49.966;8.052;2022-10-17T10:15:37;101263.00;;;33.40
11849;BMP180;5983;49.966;8.052;2022-10-17T10:18:31;101260.00;;;33.20
11849;BMP180;5983;49.966;8.052;2022-10-17T10:21:11;101265.00;;;33.10
11849;BMP180;5983;49.966;8.052;2022-10-17T10:23:40;101269.00;;;33.70
11849;BMP180;5983;49.966;8.052;2022-10-17T10:26:26;101271.00;;;34.00
11849;BMP180;5983;49.966;8.052;2022-10-17T10:28:59;101270.00;;;34.20
11849;BMP180;5983;49.966;8.052;2022-10-17T10:31:34;101265.00;;;33.90
11849;BMP180;5983;49.966;8.052;2022-10-17T10:34:17;101263.00;;;32.90
11849;BMP180;5983;49.966;8.052;2022-10-17T10:36:58;101257.00;;;32.00
11849;BMP180;5983;49.966;8.052;2022-10-17T10:39:45;101252.00;;;32.60
11849;BMP180;5983;49.966;8.052;2022-10-17T10:42:29;101257.00;;;32.70
11849;BMP180;5983;49.966;8.052;2022-10-17T10:45:02;101256.00;;;32.20
11849;BMP180;5983;49.966;8.052;2022-10-17T10:47:31;101259.00;;;31.80
11849;BMP180;5983;49.966;8.052;2022-10-17T10:50:23;101255.00;;;31.50
11849;BMP180;5983;49.966;8.052;2022-10-17T10:53:08;101247.00;;;31.40
11849;BMP180;5983;49.966;8.052;2022-10-17T10:55:42;101256.00;;;31.40
11849;BMP180;5983;49.966;8.052;2022-10-17T10:58:32;101250.00;;;30.90
11849;BMP180;5983;49.966;8.052;2022-10-17T11:01:11;101260.00;;;31.20
11849;BMP180;5983;49.966;8.052;2022-10-17T11:03:53;101266.00;;;32.20
11849;BMP180;5983;49.966;8.052;2022-10-17T11:06:27;101273.00;;;33.20
11849;BMP180;5983;49.966;8.052;2022-10-17T11:09:13;101271.00;;;33.80
11849;BMP180;5983;49.966;8.052;2022-10-17T11:11:46;101275.00;;;34.30
11849;BMP180;5983;49.966;8.052;2022-10-17T11:14:22;101270.00;;;34.50
11849;BMP180;5983;49.966;8.052;2022-10-17T11:17:02;101276.00;;;34.70
11849;BMP180;5983;49.966;8.052;2022-10-17T11:19:37;101272.00;;;34.70
11849;BMP180;5983;49.966;8.052;2022-10-17T11:22:14;101271.00;;;34.70
11849;BMP180;5983;49.966;8.052;2022-10-17T11:24:52;101274.00;;;34.60
11849;BMP180;5983;49.966;8.052;2022-10-17T11:27:22;101271.00;;;34.80
11849;BMP180;5983;49.966;8.052;2022-10-17T11:29:50;101276.00;;;35.10
11849;BMP180;5983;49.966;8.052;2022-10-17T11:32:23;101279.00;;;35.50
11849;BMP180;5983;49.966;8.052;2022-10-17T11:35:00;101270.00;;;35.60
11849;BMP180;5983;49.966;8.052;2022-10-17T11:37:34;101277.00;;;35.30
11849;BMP180;5983;49.966;8.052;2022-10-17T11:40:15;101274.00;;;35.20
11849;BMP180;5983;49.966;8.052;2022-10-17T11:42:52;101255.00;;;34.50
11849;BMP180;5983;49.966;8.052;2022-10-17T11:45:25;101260.00;;;33.80
11849;BMP180;5983;49.966;8.052;2022-10-17T11:47:57;101262.00;;;33.10
11849;BMP180;5983;49.966;8.052;2022-10-17T11:50:30;101267.00;;;33.70
11849;BMP180;5983;49.966;8.052;2022-10-17T11:53:05;101272.00;;;34.70
11849;BMP180;5983;49.966;8.052;2022-10-17T11:55:36;101266.00;;;35.40
11849;BMP180;5983;49.966;8.052;2022-10-17T11:58:24;101266.00;;;35.90
11849;BMP180;5983;49.966;8.052;2022-10-17T12:01:08;101277.00;;;36.10
11849;BMP180;5983;49.966;8.052;2022-10-17T12:03:51;101281.00;;;36.00
11849;BMP180;5983;49.966;8.052;2022-10-17T12:06:41;101276.00;;;35.90
11849;BMP180;5983;49.966;8.052;2022-10-17T12:09:21;101277.00;;;35.40
11849;BMP180;5983;49.966;8.052;2022-10-17T12:11:56;101280.00;;;34.90
11849;BMP180;5983;49.966;8.052;2022-10-17T12:14:40;101277.00;;;34.30
11849;BMP180;5983;49.966;8.052;2022-10-17T12:17:27;101281.00;;;34.70
11849;BMP180;5983;49.966;8.052;2022-10-17T12:20:24;101282.00;;;34.70
11849;BMP180;5983;49.966;8.052;2022-10-17T12:22:54;101287.00;;;34.60
11849;BMP180;5983;49.966;8.052;2022-10-17T12:25:25;101289.00;;;34.70
11849;BMP180;5983;49.966;8.052;2022-10-17T12:28:13;101285.00;;;34.50
11849;BMP180;5983;49.966;8.052;2022-10-17T12:30:54;101280.00;;;34.30
11849;BMP180;5983;49.966;8.052;2022-10-17T12:33:37;101273.00;;;33.40
11849;BMP180;5983;49.966;8.052;2022-10-17T12:36:44;101260.00;;;31.50
11849;BMP180;5983;49.966;8.052;2022-10-17T12:39:44;101265.00;;;30.40
11849;BMP180;5983;49.966;8.052;2022-10-17T12:42:47;101260.00;;;30.30
11849;BMP180;5983;49.966;8.052;2022-10-17T12:45:50;101268.00;;;29.80
11849;BMP180;5983;49.966;8.052;2022-10-17T12:49:02;101250.00;;;29.90
11849;BMP180;5983;49.966;8.052;2022-10-17T12:55:05;101251.00;;;29.50
11849;BMP180;5983;49.966;8.052;2022-10-17T12:57:43;101253.00;;;30.40
11849;BMP180;5983;49.966;8.052;2022-10-17T13:00:20;101246.00;;;31.40
11849;BMP180;5983;49.966;8.052;2022-10-17T13:02:56;101247.00;;;32.60
11849;BMP180;5983;49.966;8.052;2022-10-17T13:05:30;101246.00;;;33.50
11849;BMP180;5983;49.966;8.052;2022-10-17T13:08:02;101254.00;;;34.00
11849;BMP180;5983;49.966;8.052;2022-10-17T13:10:34;101256.00;;;33.80
11849;BMP180;5983;49.966;8.052;2022-10-17T13:13:10;101259.00;;;34.30
11849;BMP180;5983;49.966;8.052;2022-10-17T13:15:39;101261.00;;;34.80
11849;BMP180;5983;49.966;8.052;2022-10-17T13:18:18;101267.00;;;35.00
11849;BMP180;5983;49.966;8.052;2022-10-17T13:20:59;101261.00;;;35.00
11849;BMP180;5983;49.966;8.052;2022-10-17T13:23:30;101261.00;;;35.30
11849;BMP180;5983;49.966;8.052;2022-10-17T13:26:11;101273.00;;;35.10
11849;BMP180;5983;49.966;8.052;2022-10-17T13:28:39;101276.00;;;35.30
11849;BMP180;5983;49.966;8.052;2022-10-17T13:31:12;101278.00;;;35.20
11849;BMP180;5983;49.966;8.052;2022-10-17T13:33:55;101271.00;;;35.00
11849;BMP180;5983;49.966;8.052;2022-10-17T13:36:23;101274.00;;;35.10
11849;BMP180;5983;49.966;8.052;2022-10-17T13:38:51;101265.00;;;35.00
11849;BMP180;5983;49.966;8.052;2022-10-17T13:41:25;101281.00;;;34.60
11849;BMP180;5983;49.966;8.052;2022-10-17T13:43:53;101283.00;;;34.70
11849;BMP180;5983;49.966;8.052;2022-10-17T13:46:27;101286.00;;;34.80
11849;BMP180;5983;49.966;8.052;2022-10-17T13:48:57;101287.00;;;34.50
11849;BMP180;5983;49.966;8.052;2022-10-17T13:51:26;101292.00;;;34.40
11849;BMP180;5983;49.966;8.052;2022-10-17T13:53:53;101289.00;;;34.10
11849;BMP180;5983;49.966;8.052;2022-10-17T13:56:23;101293.00;;;33.50
11849;BMP180;5983;49.966;8.052;2022-10-17T13:58:53;101293.00;;;32.70
11849;BMP180;5983;49.966;8.052;2022-10-17T14:01:25;101297.00;;;31.90
11849;BMP180;5983;49.966;8.052;2022-10-17T14:03:52;101295.00;;;31.10
11849;BMP180;5983;49.966;8.052;2022-10-17T14:06:22;101290.00;;;30.60
11849;BMP180;5983;49.966;8.052;2022-10-17T14:08:57;101295.00;;;30.60
11849;BMP180;5983;49.966;8.052;2022-10-17T14:11:32;101296.00;;;30.00
11849;BMP180;5983;49.966;8.052;2022-10-17T14:14:02;101292.00;;;29.30
11849;BMP180;5983;49.966;8.052;2022-10-17T14:16:36;101290.00;;;29.10
11849;BMP180;5983;49.966;8.052;2022-10-17T14:19:19;101298.00;;;28.60
11849;BMP180;5983;49.966;8.052;2022-10-17T14:21:53;101298.00;;;28.10
11849;BMP180;5983;49.966;8.052;2022-10-17T14:24:28;101294.00;;;27.70
11849;BMP180;5983;49.966;8.052;2022-10-17T14:26:58;101298.00;;;27.40
11849;BMP180;5983;49.966;8.052;2022-10-17T14:29:28;101298.00;;;27.00
11849;BMP180;5983;49.966;8.052;2022-10-17T14:31:59;101306.00;;;26.60
11849;BMP180;5983;49.966;8.052;2022-10-17T14:34:32;101310.00;;;26.20
11849;BMP180;5983;49.966;8.052;2022-10-17T14:37:07;101298.00;;;25.80
11849;BMP180;5983;49.966;8.052;2022-10-17T14:39:35;101306.00;;;25.50
11849;BMP180;5983;49.966;8.052;2022-10-17T14:42:02;101301.00;;;25.20
11849;BMP180;5983;49.966;8.052;2022-10-17T14:44:32;101306.00;;;25.10